sensor_id;sensor_type;location;lat;lon;timestamp;pressure;altitude;pressure_sealevel;temperature;humidity
68525;BME280;55524;51.380;13.372;2022-12-07T00:01:44;100464.56;;;1.69;100.00
68525;BME280;55524;51.380;13.372;2022-12-07T00:04:13;100458.50;;;1.69;100.00
68525;BME280;55524;51.380;13.372;2022-12-07T00:06:50;100461.13;;;1.67;100.00
68525;BME280;55524;51.380;13.372;2022-12-07T00:09:21;100454.16;;;1.69;100.00
68525;BME280;55524;51.380;13.372;2022-12-07T00:11:54;100455.06;;;1.67;100.00
68525;BME280;55524;51.380;13.372;2022-12-07T00:14:23;100454.16;;;1.65;100.00
68525;BME280;55524;51.380;13.372;2022-12-07T00:16:53;100449.84;;;1.64;100.00
68525;BME280;55524;51.380;13.372;2022-12-07T00:19:19;100452.41;;;1.62;100.00
68525;BME280;55524;51.380;13.372;2022-12-07T00:21:49;100453.31;;;1.64;100.00
68525;BME280;55524;51.380;13.372;2022-12-07T00:24:24;100439.41;;;1.64;100.00
68525;BME280;55524;51.380;13.372;2022-12-07T00:26:50;100435.09;;;1.60;100.00
68525;BME280;55524;51.380;13.372;2022-12-07T00:29:21;100435.09;;;1.60;100.00
68525;BME280;55524;51.380;13.372;2022-12-07T00:31:57;100431.59;;;1.58;100.00
68525;BME280;55524;51.380;13.372;2022-12-07T00:34:24;100431.59;;;1.58;100.00
68525;BME280;55524;51.380;13.372;2022-12-07T00:36:59;100431.59;;;1.62;100.00
68525;BME280;55524;51.380;13.372;2022-12-07T00:39:25;100434.22;;;1.61;100.00
68525;BME280;55524;51.380;13.372;2022-12-07T00:41:51;100427.28;;;1.60;100.00
68525;BME280;55524;51.380;13.372;2022-12-07T00:44:26;100433.34;;;1.60;100.00
68525;BME280;55524;51.380;13.372;2022-12-07T00:46:53;100436.81;;;1.59;100.00
68525;BME280;55524;51.380;13.372;2022-12-07T00:49:22;100434.19;;;1.58;100.00
68525;BME280;55524;51.380;13.372;2022-12-07T00:51:57;100425.53;;;1.54;100.00
68525;BME280;55524;51.380;13.372;2022-12-07T00:54:32;100423.78;;;1.50;100.00
68525;BME280;55524;51.380;13.372;2022-12-07T00:57:02;100422.94;;;1.51;100.00
68525;BME280;55524;51.380;13.372;2022-12-07T00:59:31;100428.13;;;1.50;100.00
68525;BME280;55524;51.380;13.372;2022-12-07T01:02:01;100429.00;;;1.48;100.00
68525;BME280;55524;51.380;13.372;2022-12-07T01:04:36;100432.50;;;1.47;100.00
68525;BME280;55524;51.380;13.372;2022-12-07T01:07:11;100428.16;;;1.48;100.00
68525;BME280;55524;51.380;13.372;2022-12-07T01:09:37;100433.34;;;1.50;100.00
68525;BME280;55524;51.380;13.372;2022-12-07T01:12:07;100431.59;;;1.50;100.00
68525;BME280;55524;51.380;13.372;2022-12-07T01:14:33;100431.59;;;1.53;100.00
68525;BME280;55524;51.380;13.372;2022-12-07T01:17:08;100421.19;;;1.50;100.00
68525;BME280;55524;51.380;13.372;2022-12-07T01:19:34;100432.50;;;1.52;100.00
68525;BME280;55524;51.380;13.372;2022-12-07T01:22:09;100438.56;;;1.48;100.00
68525;BME280;55524;51.380;13.372;2022-12-07T01:24:36;100436.81;;;1.45;100.00
68525;BME280;55524;51.380;13.372;2022-12-07T01:27:11;100435.09;;;1.44;100.00
68525;BME280;55524;51.380;13.372;2022-12-07T01:29:40;100428.16;;;1.45;100.00
68525;BME280;55524;51.380;13.372;2022-12-07T01:32:07;100423.81;;;1.41;100.00
68525;BME280;55524;51.380;13.372;2022-12-07T01:37:11;100422.94;;;1.36;100.00
68525;BME280;55524;51.380;13.372;2022-12-07T01:39:37;100421.22;;;1.33;100.00
68525;BME280;55524;51.380;13.372;2022-12-07T01:42:23;100416.88;;;1.32;100.00
68525;BME280;55524;51.380;13.372;2022-12-07T01:48:12;100414.28;;;1.23;100.00
68525;BME280;55524;51.380;13.372;2022-12-07T01:50:50;100417.72;;;1.17;100.00
68525;BME280;55524;51.380;13.372;2022-12-07T01:53:21;100411.66;;;1.12;100.00
68525;BME280;55524;51.380;13.372;2022-12-07T01:55:55;100420.34;;;1.10;100.00
68525;BME280;55524;51.380;13.372;2022-12-07T01:58:23;100417.75;;;1.08;100.00
68525;BME280;55524;51.380;13.372;2022-12-07T02:00:59;100421.22;;;1.04;100.00
68525;BME280;55524;51.380;13.372;2022-12-07T02:03:38;100423.81;;;1.01;100.00
68525;BME280;55524;51.380;13.372;2022-12-07T02:06:06;100416.00;;;1.00;100.00
68525;BME280;55524;51.380;13.372;2022-12-07T02:08:35;100416.84;;;0.97;100.00
68525;BME280;55524;51.380;13.372;2022-12-07T02:11:04;100415.09;;;0.94;100.00
68525;BME280;55524;51.380;13.372;2022-12-07T02:13:42;100410.78;;;0.90;100.00
68525;BME280;55524;51.380;13.372;2022-12-07T02:21:57;100399.47;;;0.79;100.00
68525;BME280;55524;51.380;13.372;2022-12-07T02:25:08;100397.72;;;0.70;100.00
68525;BME280;55524;51.380;13.372;2022-12-07T02:27:50;100392.50;;;0.63;100.00
68525;BME280;55524;51.380;13.372;2022-12-07T02:30:27;100390.78;;;0.59;100.00
68525;BME280;55524;51.380;13.372;2022-12-07T02:33:19;100385.59;;;0.56;100.00
68525;BME280;55524;51.380;13.372;2022-12-07T02:36:16;100393.38;;;0.53;100.00
68525;BME280;55524;51.380;13.372;2022-12-07T02:41:48;100386.38;;;0.39;100.00
68525;BME280;55524;51.380;13.372;2022-12-07T02:44:20;100392.44;;;0.35;100.00
68525;BME280;55524;51.380;13.372;2022-12-07T02:46:55;100382.94;;;0.36;100.00
68525;BME280;55524;51.380;13.372;2022-12-07T02:49:27;100376.84;;;0.35;100.00
68525;BME280;55524;51.380;13.372;2022-12-07T02:52:03;100376.88;;;0.32;100.00
68525;BME280;55524;51.380;13.372;2022-12-07T02:54:41;100377.69;;;0.22;100.00
68525;BME280;55524;51.380;13.372;2022-12-07T03:00:01;100366.38;;;0.15;100.00
68525;BME280;55524;51.380;13.372;2022-12-07T03:03:09;100360.31;;;0.10;100.00
68525;BME280;55524;51.380;13.372;2022-12-07T03:12:15;100356.81;;;-0.01;100.00
68525;BME280;55524;51.380;13.372;2022-12-07T03:18:01;100349.84;;;-0.11;100.00
68525;BME280;55524;51.380;13.372;2022-12-07T03:20:32;100348.09;;;-0.14;100.00
68525;BME280;55524;51.380;13.372;2022-12-07T03:23:12;100349.81;;;-0.17;100.00
68525;BME280;55524;51.380;13.372;2022-12-07T03:25:49;100342.03;;;-0.17;100.00
68525;BME280;55524;51.380;13.372;2022-12-07T03:28:22;100343.75;;;-0.16;100.00
68525;BME280;55524;51.380;13.372;2022-12-07T03:31:17;100339.47;;;-0.08;100.00
68525;BME280;55524;51.380;13.372;2022-12-07T03:36:48;100331.75;;;0.09;100.00
68525;BME280;55524;51.380;13.372;2022-12-07T03:42:20;100330.88;;;0.11;100.00
68525;BME280;55524;51.380;13.372;2022-12-07T03:45:17;100336.09;;;0.13;100.00
68525;BME280;55524;51.380;13.372;2022-12-07T06:31:03;100208.78;;;0.46;100.00
68525;BME280;55524;51.380;13.372;2022-12-07T06:33:32;100214.00;;;0.46;100.00
68525;BME280;55524;51.380;13.372;2022-12-07T06:36:07;100211.41;;;0.48;100.00
68525;BME280;55524;51.380;13.372;2022-12-07T06:38:42;100205.34;;;0.52;100.00
68525;BME280;55524;51.380;13.372;2022-12-07T06:41:17;100206.22;;;0.53;100.00
68525;BME280;55524;51.380;13.372;2022-12-07T06:43:52;100207.06;;;0.55;100.00
68525;BME280;55524;51.380;13.372;2022-12-07T06:46:31;100200.13;;;0.54;100.00
68525;BME280;55524;51.380;13.372;2022-12-07T06:49:06;100205.34;;;0.57;100.00
68525;BME280;55524;51.380;13.372;2022-12-07T06:51:36;100209.69;;;0.56;100.00
68525;BME280;55524;51.380;13.372;2022-12-07T06:54:07;100211.41;;;0.62;100.00
68525;BME280;55524;51.380;13.372;2022-12-07T06:57:03;100207.06;;;0.58;100.00
68525;BME280;55524;51.380;13.372;2022-12-07T06:59:35;100209.66;;;0.62;100.00
68525;BME280;55524;51.380;13.372;2022-12-07T07:02:01;100205.31;;;0.63;100.00
68525;BME280;55524;51.380;13.372;2022-12-07T07:04:48;100214.00;;;0.65;100.00
68525;BME280;55524;51.380;13.372;2022-12-07T07:07:17;100209.66;;;0.68;100.00
68525;BME280;55524;51.380;13.372;2022-12-07T07:09:43;100213.13;;;0.70;100.00
68525;BME280;55524;51.380;13.372;2022-12-07T07:12:09;100207.94;;;0.72;100.00
68525;BME280;55524;51.380;13.372;2022-12-07T07:14:38;100207.06;;;0.76;100.00
68525;BME280;55524;51.380;13.372;2022-12-07T07:17:11;100206.19;;;0.77;100.00
68525;BME280;55524;51.380;13.372;2022-12-07T07:19:46;100210.50;;;0.81;100.00
68525;BME280;55524;51.380;13.372;2022-12-07T07:22:36;100211.38;;;0.83;100.00
68525;BME280;55524;51.380;13.372;2022-12-07T07:25:02;100211.34;;;0.86;100.00
68525;BME280;55524;51.380;13.372;2022-12-07T07:27:31;100214.81;;;0.90;100.00
68525;BME280;55524;51.380;13.372;2022-12-07T07:30:07;100207.88;;;0.95;100.00
68525;BME280;55524;51.380;13.372;2022-12-07T07:32:36;100207.88;;;0.98;100.00
68525;BME280;55524;51.380;13.372;2022-12-07T07:35:03;100213.06;;;1.01;100.00
68525;BME280;55524;51.380;13.372;2022-12-07T07:37:58;100212.19;;;1.05;100.00
68525;BME280;55524;51.380;13.372;2022-12-07T07:40:25;100206.09;;;1.15;100.00
68525;BME280;55524;51.380;13.372;2022-12-07T07:43:01;100203.47;;;1.20;100.00
68525;BME280;55524;51.380;13.372;2022-12-07T07:45:28;100201.72;;;1.27;100.00
68525;BME280;55524;51.380;13.372;2022-12-07T07:47:54;100209.50;;;1.34;100.00
68525;BME280;55524;51.380;13.372;2022-12-07T07:50:24;100206.84;;;1.48;100.00
68525;BME280;55524;51.380;13.372;2022-12-07T07:52:53;100210.22;;;1.62;100.00
68525;BME280;55524;51.380;13.372;2022-12-07T07:55:39;100204.03;;;1.85;100.00
68525;BME280;55524;51.380;13.372;2022-12-07T07:58:06;100213.50;;;2.03;100.00
68525;BME280;55524;51.380;13.372;2022-12-07T08:00:35;100208.38;;;1.89;100.00
68525;BME280;55524;51.380;13.372;2022-12-07T08:03:01;100202.31;;;1.85;100.00
68525;BME280;55524;51.380;13.372;2022-12-07T08:05:30;100205.81;;;1.80;100.00
68525;BME280;55524;51.380;13.372;2022-12-07T08:07:59;100206.66;;;1.83;100.00
68525;BME280;55524;51.380;13.372;2022-12-07T08:10:37;100204.94;;;1.81;100.00
68525;BME280;55524;51.380;13.372;2022-12-07T08:13:13;100211.88;;;1.83;100.00
68525;BME280;55524;51.380;13.372;2022-12-07T08:15:43;100205.75;;;1.89;100.00
68525;BME280;55524;51.380;13.372;2022-12-07T08:18:13;100209.22;;;1.92;100.00
68525;BME280;55524;51.380;13.372;2022-12-07T08:20:40;100200.50;;;1.98;100.00
68525;BME280;55524;51.380;13.372;2022-12-07T08:23:08;100204.81;;;2.02;100.00
68525;BME280;55524;51.380;13.372;2022-12-07T08:25:34;100198.72;;;2.06;100.00
68525;BME280;55524;51.380;13.372;2022-12-07T08:28:01;100202.16;;;2.08;100.00
68525;BME280;55524;51.380;13.372;2022-12-07T08:30:48;100201.28;;;2.14;100.00
68525;BME280;55524;51.380;13.372;2022-12-07T08:33:25;100191.66;;;2.22;100.00
68525;BME280;55524;51.380;13.372;2022-12-07T08:35:51;100200.28;;;2.26;100.00
68525;BME280;55524;51.380;13.372;2022-12-07T08:38:20;100190.69;;;2.34;100.00
68525;BME280;55524;51.380;13.372;2022-12-07T08:40:57;100188.91;;;2.39;100.00
68525;BME280;55524;51.380;13.372;2022-12-07T08:43:24;100190.59;;;2.41;100.00
68525;BME280;55524;51.380;13.372;2022-12-07T08:46:10;100188.84;;;2.46;100.00
68525;BME280;55524;51.380;13.372;2022-12-07T08:52:02;100183.56;;;2.54;100.00
68525;BME280;55524;51.380;13.372;2022-12-07T08:54:30;100194.84;;;2.55;100.00
68525;BME280;55524;51.380;13.372;2022-12-07T08:56:59;100195.75;;;2.54;100.00
68525;BME280;55524;51.380;13.372;2022-12-07T08:59:30;100200.00;;;2.65;100.00
68525;BME280;55524;51.380;13.372;2022-12-07T09:01:56;100204.34;;;2.63;100.00
68525;BME280;55524;51.380;13.372;2022-12-07T09:04:22;100196.50;;;2.66;100.00
68525;BME280;55524;51.380;13.372;2022-12-07T09:06:57;100198.22;;;2.67;100.00
68525;BME280;55524;51.380;13.372;2022-12-07T09:09:23;100205.16;;;2.70;100.00
68525;BME280;55524;51.380;13.372;2022-12-07T09:11:49;100198.13;;;2.75;100.00
68525;BME280;55524;51.380;13.372;2022-12-07T09:14:15;100205.03;;;2.82;100.00
68525;BME280;55524;51.380;13.372;2022-12-07T09:16:46;100194.59;;;2.81;100.00
68525;BME280;55524;51.380;13.372;2022-12-07T09:19:15;100200.66;;;2.86;100.00
68525;BME280;55524;51.380;13.372;2022-12-07T09:21:41;100200.59;;;2.90;100.00
68525;BME280;55524;51.380;13.372;2022-12-07T09:24:16;100200.56;;;2.95;100.00
68525;BME280;55524;51.380;13.372;2022-12-07T09:26:43;100209.22;;;2.99;100.00
68525;BME280;55524;51.380;13.372;2022-12-07T09:29:13;100214.38;;;3.03;100.00
68525;BME280;55524;51.380;13.372;2022-12-07T09:31:42;100212.56;;;3.11;100.00
68525;BME280;55524;51.380;13.372;2022-12-07T09:34:17;100212.56;;;3.11;100.00
68525;BME280;55524;51.380;13.372;2022-12-07T09:36:45;100216.06;;;3.09;100.00
68525;BME280;55524;51.380;13.372;2022-12-07T09:39:14;100213.41;;;3.13;100.00
68525;BME280;55524;51.380;13.372;2022-12-07T09:41:49;100212.41;;;3.25;100.00
68525;BME280;55524;51.380;13.372;2022-12-07T09:44:24;100205.47;;;3.23;100.00
68525;BME280;55524;51.380;13.372;2022-12-07T09:47:20;100204.59;;;3.25;100.00
68525;BME280;55524;51.380;13.372;2022-12-07T09:49:55;100203.66;;;3.28;100.00
68525;BME280;55524;51.380;13.372;2022-12-07T09:52:28;100201.00;;;3.34;100.00
68525;BME280;55524;51.380;13.372;2022-12-07T09:54:55;100198.34;;;3.35;100.00
68525;BME280;55524;51.380;13.372;2022-12-07T09:57:31;100199.03;;;3.51;100.00
68525;BME280;55524;51.380;13.372;2022-12-07T10:00:23;100191.97;;;3.59;100.00
68525;BME280;55524;51.380;13.372;2022-12-07T10:03:03;100195.44;;;3.60;100.00
68525;BME280;55524;51.380;13.372;2022-12-07T10:05:38;100194.59;;;3.56;100.00
68525;BME280;55524;51.380;13.372;2022-12-07T10:08:07;100185.03;;;3.58;100.00
68525;BME280;55524;51.380;13.372;2022-12-07T10:10:38;100186.88;;;3.50;100.00
68525;BME280;55524;51.380;13.372;2022-12-07T10:13:35;100207.75;;;3.50;100.00
68525;BME280;55524;51.380;13.372;2022-12-07T10:16:02;100189.41;;;3.55;100.00
68525;BME280;55524;51.380;13.372;2022-12-07T10:18:30;100191.09;;;3.60;100.00
68525;BME280;55524;51.380;13.372;2022-12-07T10:24:01;100191.03;;;3.63;100.00
68525;BME280;55524;51.380;13.372;2022-12-07T10:26:50;100183.09;;;3.71;100.00
68525;BME280;55524;51.380;13.372;2022-12-07T10:29:24;100185.75;;;3.69;100.00
68525;BME280;55524;51.380;13.372;2022-12-07T10:32:03;100187.44;;;3.72;100.00
68525;BME280;55524;51.380;13.372;2022-12-07T10:34:38;100197.88;;;3.72;100.00
68525;BME280;55524;51.380;13.372;2022-12-07T10:39:56;100191.97;;;3.59;100.00
68525;BME280;55524;51.380;13.372;2022-12-07T10:42:33;100192.88;;;3.55;100.00
68525;BME280;55524;51.380;13.372;2022-12-07T11:21:45;100196.59;;;2.53;100.00
68525;BME280;55524;51.380;13.372;2022-12-07T11:25:10;100189.63;;;2.53;100.00
68525;BME280;55524;51.380;13.372;2022-12-07T11:35:34;100205.59;;;2.16;100.00
68525;BME280;55524;51.380;13.372;2022-12-07T11:40:51;100191.75;;;2.07;100.00
68525;BME280;55524;51.380;13.372;2022-12-07T11:43:49;100188.31;;;2.00;100.00
68525;BME280;55524;51.380;13.372;2022-12-07T11:46:17;100191.81;;;1.96;100.00
68525;BME280;55524;51.380;13.372;2022-12-07T11:48:55;100190.06;;;1.96;100.00
68525;BME280;55524;51.380;13.372;2022-12-07T11:51:34;100190.03;;;2.04;100.00
68525;BME280;55524;51.380;13.372;2022-12-07T11:54:41;100194.38;;;2.04;100.00
68525;BME280;55524;51.380;13.372;2022-12-07T11:57:40;100186.50;;;2.13;100.00
68525;BME280;55524;51.380;13.372;2022-12-07T12:00:17;100180.34;;;2.21;100.00
68525;BME280;55524;51.380;13.372;2022-12-07T12:05:51;100182.88;;;2.29;100.00
68525;BME280;55524;51.380;13.372;2022-12-07T12:21:17;100165.50;;;2.34;100.00
68525;BME280;55524;51.380;13.372;2022-12-07T12:23:54;100168.09;;;2.34;100.00
68525;BME280;55524;51.380;13.372;2022-12-07T12:26:36;100173.31;;;2.33;100.00
68525;BME280;55524;51.380;13.372;2022-12-07T12:29:44;100161.94;;;2.40;100.00
68525;BME280;55524;51.380;13.372;2022-12-07T12:32:51;100167.19;;;2.37;100.00
68525;BME280;55524;51.380;13.372;2022-12-07T12:35:36;100163.66;;;2.41;100.00
68525;BME280;55524;51.380;13.372;2022-12-07T12:50:10;100158.34;;;2.55;100.00
68525;BME280;55524;51.380;13.372;2022-12-07T12:55:22;100144.44;;;2.54;100.00
68525;BME280;55524;51.380;13.372;2022-12-07T12:58:44;100146.13;;;2.61;100.00
68525;BME280;55524;51.380;13.372;2022-12-07T13:01:31;100146.06;;;2.64;100.00
68525;BME280;55524;51.380;13.372;2022-12-07T13:03:36;100142.56;;;2.67;100.00
68525;BME280;55524;51.380;13.372;2022-12-07T13:06:39;100151.34;;;2.61;100.00
68525;BME280;55524;51.380;13.372;2022-12-07T13:12:13;100149.78;;;2.39;100.00
68525;BME280;55524;51.380;13.372;2022-12-07T13:20:06;100140.13;;;2.52;100.00
68525;BME280;55524;51.380;13.372;2022-12-07T13:28:15;100133.94;;;2.60;100.00
68525;BME280;55524;51.380;13.372;2022-12-07T13:30:53;100133.91;;;2.63;100.00
68525;BME280;55524;51.380;13.372;2022-12-07T13:33:28;100140.00;;;2.62;100.00
68525;BME280;55524;51.380;13.372;2022-12-07T13:36:08;100146.13;;;2.61;100.00
68525;BME280;55524;51.380;13.372;2022-12-07T13:39:01;100146.13;;;2.60;100.00
68525;BME280;55524;51.380;13.372;2022-12-07T13:41:48;100140.00;;;2.64;100.00
68525;BME280;55524;51.380;13.372;2022-12-07T13:44:16;100140.00;;;2.64;100.00
68525;BME280;55524;51.380;13.372;2022-12-07T13:47:13;100131.28;;;2.66;100.00
68525;BME280;55524;51.380;13.372;2022-12-07T13:49:53;100136.50;;;2.65;100.00
68525;BME280;55524;51.380;13.372;2022-12-07T13:52:30;100136.50;;;2.66;100.00
68525;BME280;55524;51.380;13.372;2022-12-07T13:57:44;100137.34;;;2.70;100.00
68525;BME280;55524;51.380;13.372;2022-12-07T14:00:39;100146.00;;;2.69;100.00
68525;BME280;55524;51.380;13.372;2022-12-07T14:05:42;100135.66;;;2.63;100.00
68525;BME280;55524;51.380;13.372;2022-12-07T14:10:55;100140.94;;;2.55;100.00
68525;BME280;55524;51.380;13.372;2022-12-07T14:13:35;100140.06;;;2.56;100.00
68525;BME280;55524;51.380;13.372;2022-12-07T14:18:51;100139.16;;;2.57;100.00
68525;BME280;55524;51.380;13.372;2022-12-07T14:21:32;100140.06;;;2.58;100.00
68525;BME280;55524;51.380;13.372;2022-12-07T14:26:39;100136.66;;;2.51;100.00
68525;BME280;55524;51.380;13.372;2022-12-07T14:32:19;100140.31;;;2.30;100.00
68525;BME280;55524;51.380;13.372;2022-12-07T14:37:30;100150.91;;;2.10;100.00
68525;BME280;55524;51.380;13.372;2022-12-07T14:40:23;100150.94;;;2.04;100.00
68525;BME280;55524;51.380;13.372;2022-12-07T14:45:56;100135.28;;;2.07;100.00
68525;BME280;55524;51.380;13.372;2022-12-07T14:48:38;100137.06;;;2.04;100.00
68525;BME280;55524;51.380;13.372;2022-12-07T14:51:25;100137.03;;;2.07;100.00
68525;BME280;55524;51.380;13.372;2022-12-07T14:53:54;100136.19;;;2.03;100.00
68525;BME280;55524;51.380;13.372;2022-12-07T14:57:19;100145.78;;;1.98;100.00
68525;BME280;55524;51.380;13.372;2022-12-07T14:59:54;100148.34;;;2.01;100.00
68525;BME280;55524;51.380;13.372;2022-12-07T15:02:21;100148.34;;;2.01;100.00
68525;BME280;55524;51.380;13.372;2022-12-07T15:04:56;100148.34;;;2.03;100.00
68525;BME280;55524;51.380;13.372;2022-12-07T15:07:34;100152.69;;;2.01;100.00
68525;BME280;55524;51.380;13.372;2022-12-07T15:10:22;100157.03;;;2.06;100.00
68525;BME280;55524;51.380;13.372;2022-12-07T15:13:05;100139.59;;;2.10;100.00
68525;BME280;55524;51.380;13.372;2022-12-07T15:16:20;100144.88;;;2.04;100.00
68525;BME280;55524;51.380;13.372;2022-12-07T15:22:10;100137.06;;;2.01;100.00
68525;BME280;55524;51.380;13.372;2022-12-07T15:24:45;100153.53;;;2.07;100.00
68525;BME280;55524;51.380;13.372;2022-12-07T15:27:34;100159.63;;;2.06;100.00
68525;BME280;55524;51.380;13.372;2022-12-07T15:30:09;100160.47;;;2.05;100.00
68525;BME280;55524;51.380;13.372;2022-12-07T15:32:49;100156.22;;;1.98;100.00
68525;BME280;55524;51.380;13.372;2022-12-07T15:35:37;100144.06;;;1.92;100.00
68525;BME280;55524;51.380;13.372;2022-12-07T15:38:14;100145.84;;;1.89;100.00
68525;BME280;55524;51.380;13.372;2022-12-07T15:40:55;100150.22;;;1.84;100.00
68525;BME280;55524;51.380;13.372;2022-12-07T15:43:33;100151.06;;;1.87;100.00
68525;BME280;55524;51.380;13.372;2022-12-07T15:46:22;100149.34;;;1.85;100.00
68525;BME280;55524;51.380;13.372;2022-12-07T15:48:57;100145.84;;;1.86;100.00
68525;BME280;55524;51.380;13.372;2022-12-07T15:51:23;100146.72;;;1.85;100.00
68525;BME280;55524;51.380;13.372;2022-12-07T15:53:50;100153.69;;;1.84;100.00
68525;BME280;55524;51.380;13.372;2022-12-07T15:56:29;100151.06;;;1.87;100.00
68525;BME280;55524;51.380;13.372;2022-12-07T15:58:56;100159.75;;;1.88;100.00
68525;BME280;55524;51.380;13.372;2022-12-07T16:01:31;100164.09;;;1.90;100.00
68525;BME280;55524;51.380;13.372;2022-12-07T16:04:03;100172.72;;;1.94;100.00
68525;BME280;55524;51.380;13.372;2022-12-07T16:06:44;100170.16;;;1.89;100.00
68525;BME280;55524;51.380;13.372;2022-12-07T16:09:22;100166.75;;;1.80;100.00
68525;BME280;55524;51.380;13.372;2022-12-07T16:12:26;100158.13;;;1.68;100.00
68525;BME280;55524;51.380;13.372;2022-12-07T16:15:08;100159.91;;;1.66;100.00
68525;BME280;55524;51.380;13.372;2022-12-07T16:17:41;100158.13;;;1.65;100.00
68525;BME280;55524;51.380;13.372;2022-12-07T16:20:17;100159.88;;;1.65;100.00
68525;BME280;55524;51.380;13.372;2022-12-07T16:22:47;100158.13;;;1.68;100.00
68525;BME280;55524;51.380;13.372;2022-12-07T16:25:27;100164.22;;;1.67;100.00
68525;BME280;55524;51.380;13.372;2022-12-07T16:31:19;100160.75;;;1.62;100.00
68525;BME280;55524;51.380;13.372;2022-12-07T16:36:56;100157.31;;;1.57;100.00
68525;BME280;55524;51.380;13.372;2022-12-07T16:39:39;100160.81;;;1.56;100.00
68525;BME280;55524;51.380;13.372;2022-12-07T16:42:11;100164.28;;;1.55;100.00
68525;BME280;55524;51.380;13.372;2022-12-07T16:44:44;100160.81;;;1.56;100.00
68525;BME280;55524;51.380;13.372;2022-12-07T16:47:15;100154.69;;;1.63;100.00
68525;BME280;55524;51.380;13.372;2022-12-07T16:49:51;100149.50;;;1.63;100.00
68525;BME280;55524;51.380;13.372;2022-12-07T16:52:24;100149.41;;;1.72;100.00
68525;BME280;55524;51.380;13.372;2022-12-07T16:55:10;100148.50;;;1.80;100.00
68525;BME280;55524;51.380;13.372;2022-12-07T16:57:45;100140.66;;;1.87;100.00
68525;BME280;55524;51.380;13.372;2022-12-07T17:00:23;100145.84;;;1.90;100.00
68525;BME280;55524;51.380;13.372;2022-12-07T17:02:50;100138.88;;;1.89;100.00
68525;BME280;55524;51.380;13.372;2022-12-07T17:05:31;100135.44;;;1.90;100.00
68525;BME280;55524;51.380;13.372;2022-12-07T17:08:01;100139.75;;;1.91;100.00
68525;BME280;55524;51.380;13.372;2022-12-07T17:10:37;100128.38;;;2.00;100.00
68525;BME280;55524;51.380;13.372;2022-12-07T17:13:13;100131.88;;;2.02;100.00
68525;BME280;55524;51.380;13.372;2022-12-07T17:16:03;100123.16;;;2.03;100.00
68525;BME280;55524;51.380;13.372;2022-12-07T17:18:35;100128.34;;;2.06;100.00
68525;BME280;55524;51.380;13.372;2022-12-07T17:21:07;100130.06;;;2.07;100.00
68525;BME280;55524;51.380;13.372;2022-12-07T17:23:39;100130.06;;;2.06;100.00
68525;BME280;55524;51.380;13.372;2022-12-07T17:26:34;100136.13;;;2.11;100.00
68525;BME280;55524;51.380;13.372;2022-12-07T17:29:10;100144.78;;;2.14;100.00
68525;BME280;55524;51.380;13.372;2022-12-07T17:31:40;100141.31;;;2.12;100.00
68525;BME280;55524;51.380;13.372;2022-12-07T17:34:27;100145.69;;;2.10;100.00
68525;BME280;55524;51.380;13.372;2022-12-07T17:37:23;100141.38;;;2.05;100.00
68525;BME280;55524;51.380;13.372;2022-12-07T17:39:58;100144.00;;;2.03;100.00
68525;BME280;55524;51.380;13.372;2022-12-07T17:42:28;100148.41;;;1.98;100.00
68525;BME280;55524;51.380;13.372;2022-12-07T17:45:07;100150.16;;;1.93;100.00
68525;BME280;55524;51.380;13.372;2022-12-07T17:47:35;100145.84;;;1.87;100.00
68525;BME280;55524;51.380;13.372;2022-12-07T17:50:06;100151.97;;;1.82;100.00
68525;BME280;55524;51.380;13.372;2022-12-07T17:52:42;100151.16;;;1.75;100.00
68525;BME280;55524;51.380;13.372;2022-12-07T17:57:53;100148.59;;;1.64;100.00
68525;BME280;55524;51.380;13.372;2022-12-07T18:00:25;100148.66;;;1.57;100.00
68525;BME280;55524;51.380;13.372;2022-12-07T18:02:55;100145.22;;;1.48;100.00
68525;BME280;55524;51.380;13.372;2022-12-07T18:05:24;100156.56;;;1.40;100.00
68525;BME280;55524;51.380;13.372;2022-12-07T18:07:50;100147.91;;;1.33;100.00
68525;BME280;55524;51.380;13.372;2022-12-07T18:10:23;100149.63;;;1.33;100.00
68525;BME280;55524;51.380;13.372;2022-12-07T18:12:49;100140.97;;;1.26;100.00
68525;BME280;55524;51.380;13.372;2022-12-07T18:15:16;100148.78;;;1.26;100.00
68525;BME280;55524;51.380;13.372;2022-12-07T18:17:53;100143.59;;;1.31;100.00
68525;BME280;55524;51.380;13.372;2022-12-07T18:20:23;100150.53;;;1.32;100.00
68525;BME280;55524;51.380;13.372;2022-12-07T18:22:52;100149.63;;;1.33;100.00
68525;BME280;55524;51.380;13.372;2022-12-07T18:25:18;100140.06;;;1.39;100.00
68525;BME280;55524;51.380;13.372;2022-12-07T18:27:53;100140.09;;;1.33;100.00
68525;BME280;55524;51.380;13.372;2022-12-07T18:30:19;100138.38;;;1.31;100.00
68525;BME280;55524;51.380;13.372;2022-12-07T18:32:46;100142.69;;;1.30;100.00
68525;BME280;55524;51.380;13.372;2022-12-07T18:35:38;100149.66;;;1.30;100.00
68525;BME280;55524;51.380;13.372;2022-12-07T18:38:16;100147.06;;;1.27;100.00
68525;BME280;55524;51.380;13.372;2022-12-07T18:40:46;100150.53;;;1.29;100.00
68525;BME280;55524;51.380;13.372;2022-12-07T18:43:13;100152.22;;;1.37;100.00
68525;BME280;55524;51.380;13.372;2022-12-07T18:45:44;100156.53;;;1.44;100.00
68525;BME280;55524;51.380;13.372;2022-12-07T18:48:23;100142.59;;;1.55;100.00
68525;BME280;55524;51.380;13.372;2022-12-07T18:51:06;100146.91;;;1.54;100.00
68525;BME280;55524;51.380;13.372;2022-12-07T18:53:39;100143.47;;;1.52;100.00
68525;BME280;55524;51.380;13.372;2022-12-07T18:56:18;100142.63;;;1.48;100.00